sensor_id;sensor_type;location;lat;lon;timestamp;P1;durP1;ratioP1;P2;durP2;ratioP2
46717;SDS011;32448;44.960;-0.698;2023-01-08T00:01:47;17.58;;;2.92;;
46717;SDS011;32448;44.960;-0.698;2023-01-08T00:04:15;12.73;;;2.65;;
46717;SDS011;32448;44.960;-0.698;2023-01-08T00:06:43;20.38;;;2.92;;
46717;SDS011;32448;44.960;-0.698;2023-01-08T00:09:12;13.10;;;2.53;;
46717;SDS011;32448;44.960;-0.698;2023-01-08T00:11:40;20.10;;;2.78;;
46717;SDS011;32448;44.960;-0.698;2023-01-08T00:14:07;14.27;;;2.55;;
46717;SDS011;32448;44.960;-0.698;2023-01-08T00:16:35;18.02;;;3.55;;
46717;SDS011;32448;44.960;-0.698;2023-01-08T00:19:03;18.73;;;3.47;;
46717;SDS011;32448;44.960;-0.698;2023-01-08T00:21:30;11.35;;;2.40;;
46717;SDS011;32448;44.960;-0.698;2023-01-08T00:23:57;13.07;;;3.70;;
46717;SDS011;32448;44.960;-0.698;2023-01-08T00:26:25;12.85;;;2.38;;
46717;SDS011;32448;44.960;-0.698;2023-01-08T00:28:53;14.20;;;2.50;;
46717;SDS011;32448;44.960;-0.698;2023-01-08T00:31:20;14.25;;;3.22;;
46717;SDS011;32448;44.960;-0.698;2023-01-08T00:33:48;19.52;;;3.88;;
46717;SDS011;32448;44.960;-0.698;2023-01-08T00:36:16;16.23;;;3.55;;
46717;SDS011;32448;44.960;-0.698;2023-01-08T00:38:45;14.57;;;2.90;;
46717;SDS011;32448;44.960;-0.698;2023-01-08T00:41:13;14.52;;;2.90;;
46717;SDS011;32448;44.960;-0.698;2023-01-08T00:43:44;12.20;;;2.75;;
46717;SDS011;32448;44.960;-0.698;2023-01-08T00:46:11;14.93;;;3.92;;
46717;SDS011;32448;44.960;-0.698;2023-01-08T00:48:38;21.05;;;3.47;;
46717;SDS011;32448;44.960;-0.698;2023-01-08T00:51:06;17.23;;;3.38;;
46717;SDS011;32448;44.960;-0.698;2023-01-08T00:53:35;15.60;;;3.38;;
46717;SDS011;32448;44.960;-0.698;2023-01-08T00:56:05;16.88;;;3.72;;
46717;SDS011;32448;44.960;-0.698;2023-01-08T00:58:35;23.05;;;3.53;;
46717;SDS011;32448;44.960;-0.698;2023-01-08T01:01:07;16.13;;;3.60;;
46717;SDS011;32448;44.960;-0.698;2023-01-08T01:03:36;16.10;;;2.95;;
46717;SDS011;32448;44.960;-0.698;2023-01-08T01:06:04;15.65;;;3.00;;
46717;SDS011;32448;44.960;-0.698;2023-01-08T01:08:33;13.95;;;3.08;;
46717;SDS011;32448;44.960;-0.698;2023-01-08T01:11:08;16.02;;;3.85;;
46717;SDS011;32448;44.960;-0.698;2023-01-08T01:13:36;22.00;;;5.25;;
46717;SDS011;32448;44.960;-0.698;2023-01-08T01:16:04;12.10;;;3.60;;
46717;SDS011;32448;44.960;-0.698;2023-01-08T01:18:31;17.50;;;2.88;;
46717;SDS011;32448;44.960;-0.698;2023-01-08T01:20:59;12.07;;;2.47;;
46717;SDS011;32448;44.960;-0.698;2023-01-08T01:23:27;12.40;;;2.53;;
46717;SDS011;32448;44.960;-0.698;2023-01-08T01:25:54;20.38;;;3.63;;
46717;SDS011;32448;44.960;-0.698;2023-01-08T01:28:21;10.50;;;2.92;;
46717;SDS011;32448;44.960;-0.698;2023-01-08T01:30:52;12.20;;;2.83;;
46717;SDS011;32448;44.960;-0.698;2023-01-08T01:33:22;17.13;;;3.50;;
46717;SDS011;32448;44.960;-0.698;2023-01-08T01:35:57;12.77;;;3.20;;
46717;SDS011;32448;44.960;-0.698;2023-01-08T01:38:27;8.35;;;2.20;;
46717;SDS011;32448;44.960;-0.698;2023-01-08T01:40:54;10.38;;;2.25;;
46717;SDS011;32448;44.960;-0.698;2023-01-08T01:43:38;7.32;;;2.03;;
46717;SDS011;32448;44.960;-0.698;2023-01-08T01:48:50;9.15;;;2.13;;
46717;SDS011;32448;44.960;-0.698;2023-01-08T01:51:22;11.82;;;2.75;;
46717;SDS011;32448;44.960;-0.698;2023-01-08T01:53:55;9.07;;;2.50;;
46717;SDS011;32448;44.960;-0.698;2023-01-08T01:56:24;10.40;;;2.60;;
46717;SDS011;32448;44.960;-0.698;2023-01-08T01:58:52;10.13;;;2.10;;
46717;SDS011;32448;44.960;-0.698;2023-01-08T02:01:20;8.25;;;1.90;;
46717;SDS011;32448;44.960;-0.698;2023-01-08T02:03:48;9.82;;;1.92;;
46717;SDS011;32448;44.960;-0.698;2023-01-08T02:14:52;8.23;;;2.08;;
46717;SDS011;32448;44.960;-0.698;2023-01-08T02:20:05;5.32;;;1.42;;
46717;SDS011;32448;44.960;-0.698;2023-01-08T02:28:40;7.88;;;1.80;;
46717;SDS011;32448;44.960;-0.698;2023-01-08T02:31:13;8.43;;;2.20;;
46717;SDS011;32448;44.960;-0.698;2023-01-08T02:33:42;10.57;;;2.10;;
46717;SDS011;32448;44.960;-0.698;2023-01-08T02:36:14;20.75;;;2.78;;
46717;SDS011;32448;44.960;-0.698;2023-01-08T02:38:48;9.70;;;2.20;;
46717;SDS011;32448;44.960;-0.698;2023-01-08T02:41:26;7.18;;;2.35;;
46717;SDS011;32448;44.960;-0.698;2023-01-08T02:44:07;7.32;;;2.10;;
46717;SDS011;32448;44.960;-0.698;2023-01-08T02:46:38;8.82;;;1.70;;
46717;SDS011;32448;44.960;-0.698;2023-01-08T02:49:08;7.07;;;1.75;;
46717;SDS011;32448;44.960;-0.698;2023-01-08T02:51:44;7.13;;;1.95;;
46717;SDS011;32448;44.960;-0.698;2023-01-08T02:54:20;14.00;;;2.53;;
46717;SDS011;32448;44.960;-0.698;2023-01-08T02:57:02;7.38;;;1.67;;
46717;SDS011;32448;44.960;-0.698;2023-01-08T03:02:03;10.93;;;1.60;;
46717;SDS011;32448;44.960;-0.698;2023-01-08T03:04:35;6.40;;;1.95;;
46717;SDS011;32448;44.960;-0.698;2023-01-08T03:07:06;9.30;;;1.60;;
46717;SDS011;32448;44.960;-0.698;2023-01-08T03:09:34;6.78;;;1.45;;
46717;SDS011;32448;44.960;-0.698;2023-01-08T03:12:08;9.52;;;1.70;;
46717;SDS011;32448;44.960;-0.698;2023-01-08T03:14:43;5.28;;;1.88;;
46717;SDS011;32448;44.960;-0.698;2023-01-08T03:17:18;8.40;;;1.90;;
46717;SDS011;32448;44.960;-0.698;2023-01-08T03:19:53;13.75;;;1.90;;
46717;SDS011;32448;44.960;-0.698;2023-01-08T03:22:27;7.80;;;1.83;;
46717;SDS011;32448;44.960;-0.698;2023-01-08T03:24:58;10.18;;;1.48;;
46717;SDS011;32448;44.960;-0.698;2023-01-08T03:27:27;9.52;;;1.58;;
46717;SDS011;32448;44.960;-0.698;2023-01-08T03:29:58;9.70;;;2.25;;
46717;SDS011;32448;44.960;-0.698;2023-01-08T03:32:26;8.93;;;1.30;;
46717;SDS011;32448;44.960;-0.698;2023-01-08T03:34:56;14.23;;;1.83;;
46717;SDS011;32448;44.960;-0.698;2023-01-08T03:37:28;10.85;;;1.90;;
46717;SDS011;32448;44.960;-0.698;2023-01-08T03:40:04;8.52;;;1.80;;
46717;SDS011;32448;44.960;-0.698;2023-01-08T03:42:38;12.55;;;2.80;;
46717;SDS011;32448;44.960;-0.698;2023-01-08T03:45:06;9.63;;;1.48;;
46717;SDS011;32448;44.960;-0.698;2023-01-08T03:47:34;7.63;;;1.80;;
46717;SDS011;32448;44.960;-0.698;2023-01-08T03:50:06;17.40;;;2.25;;
46717;SDS011;32448;44.960;-0.698;2023-01-08T03:52:37;8.35;;;1.75;;
46717;SDS011;32448;44.960;-0.698;2023-01-08T03:55:05;5.68;;;1.77;;
46717;SDS011;32448;44.960;-0.698;2023-01-08T03:57:33;12.23;;;1.80;;
46717;SDS011;32448;44.960;-0.698;2023-01-08T04:00:00;10.00;;;1.70;;
46717;SDS011;32448;44.960;-0.698;2023-01-08T04:02:30;10.43;;;1.80;;
46717;SDS011;32448;44.960;-0.698;2023-01-08T04:04:58;10.93;;;1.88;;
46717;SDS011;32448;44.960;-0.698;2023-01-08T04:07:25;8.70;;;1.55;;
46717;SDS011;32448;44.960;-0.698;2023-01-08T04:09:53;13.98;;;1.85;;
46717;SDS011;32448;44.960;-0.698;2023-01-08T04:12:21;12.40;;;2.28;;
46717;SDS011;32448;44.960;-0.698;2023-01-08T04:14:50;10.93;;;1.48;;
46717;SDS011;32448;44.960;-0.698;2023-01-08T04:17:17;10.80;;;1.77;;
46717;SDS011;32448;44.960;-0.698;2023-01-08T04:19:44;10.02;;;1.80;;
46717;SDS011;32448;44.960;-0.698;2023-01-08T04:22:12;9.38;;;1.73;;
46717;SDS011;32448;44.960;-0.698;2023-01-08T04:24:39;11.18;;;1.77;;
46717;SDS011;32448;44.960;-0.698;2023-01-08T04:27:06;9.55;;;1.50;;
46717;SDS011;32448;44.960;-0.698;2023-01-08T04:29:34;4.68;;;1.80;;
46717;SDS011;32448;44.960;-0.698;2023-01-08T04:32:02;8.32;;;1.92;;
46717;SDS011;32448;44.960;-0.698;2023-01-08T04:34:29;8.95;;;1.55;;
46717;SDS011;32448;44.960;-0.698;2023-01-08T04:36:56;10.32;;;2.20;;
46717;SDS011;32448;44.960;-0.698;2023-01-08T04:39:25;9.13;;;1.95;;
46717;SDS011;32448;44.960;-0.698;2023-01-08T04:41:52;8.80;;;1.60;;
46717;SDS011;32448;44.960;-0.698;2023-01-08T04:44:20;12.00;;;1.50;;
46717;SDS011;32448;44.960;-0.698;2023-01-08T04:46:48;6.07;;;1.33;;
46717;SDS011;32448;44.960;-0.698;2023-01-08T04:49:15;8.90;;;1.73;;
46717;SDS011;32448;44.960;-0.698;2023-01-08T04:51:42;9.70;;;1.70;;
46717;SDS011;32448;44.960;-0.698;2023-01-08T04:54:10;10.55;;;2.33;;
46717;SDS011;32448;44.960;-0.698;2023-01-08T04:56:37;9.98;;;1.60;;
46717;SDS011;32448;44.960;-0.698;2023-01-08T04:59:04;8.60;;;1.42;;
46717;SDS011;32448;44.960;-0.698;2023-01-08T05:01:32;13.23;;;3.05;;
46717;SDS011;32448;44.960;-0.698;2023-01-08T05:04:00;6.28;;;1.95;;
46717;SDS011;32448;44.960;-0.698;2023-01-08T05:06:30;7.25;;;1.80;;
46717;SDS011;32448;44.960;-0.698;2023-01-08T05:08:58;7.82;;;1.83;;
46717;SDS011;32448;44.960;-0.698;2023-01-08T05:11:26;6.22;;;1.77;;
46717;SDS011;32448;44.960;-0.698;2023-01-08T05:13:53;13.98;;;2.30;;
46717;SDS011;32448;44.960;-0.698;2023-01-08T05:16:21;8.77;;;1.70;;
46717;SDS011;32448;44.960;-0.698;2023-01-08T05:18:49;7.38;;;1.50;;
46717;SDS011;32448;44.960;-0.698;2023-01-08T05:21:18;8.85;;;1.80;;
46717;SDS011;32448;44.960;-0.698;2023-01-08T05:23:47;9.98;;;1.70;;
46717;SDS011;32448;44.960;-0.698;2023-01-08T05:26:15;6.35;;;1.50;;
46717;SDS011;32448;44.960;-0.698;2023-01-08T05:28:43;5.03;;;1.30;;
46717;SDS011;32448;44.960;-0.698;2023-01-08T05:31:11;7.68;;;1.75;;
46717;SDS011;32448;44.960;-0.698;2023-01-08T05:33:39;8.25;;;1.42;;
46717;SDS011;32448;44.960;-0.698;2023-01-08T05:36:07;6.60;;;1.20;;
46717;SDS011;32448;44.960;-0.698;2023-01-08T05:38:37;9.57;;;1.95;;
46717;SDS011;32448;44.960;-0.698;2023-01-08T05:41:11;7.47;;;2.00;;
46717;SDS011;32448;44.960;-0.698;2023-01-08T05:43:43;12.17;;;1.67;;
46717;SDS011;32448;44.960;-0.698;2023-01-08T05:46:11;6.85;;;1.50;;
46717;SDS011;32448;44.960;-0.698;2023-01-08T05:48:39;8.00;;;1.60;;
46717;SDS011;32448;44.960;-0.698;2023-01-08T05:51:07;9.38;;;1.88;;
46717;SDS011;32448;44.960;-0.698;2023-01-08T05:53:35;8.65;;;1.77;;
46717;SDS011;32448;44.960;-0.698;2023-01-08T05:56:07;11.68;;;1.70;;
46717;SDS011;32448;44.960;-0.698;2023-01-08T05:58:36;12.13;;;3.40;;
46717;SDS011;32448;44.960;-0.698;2023-01-08T06:01:08;46.53;;;25.30;;
46717;SDS011;32448;44.960;-0.698;2023-01-08T06:03:38;60.75;;;40.35;;
46717;SDS011;32448;44.960;-0.698;2023-01-08T06:06:06;43.95;;;30.42;;
46717;SDS011;32448;44.960;-0.698;2023-01-08T06:08:35;45.38;;;36.92;;
46717;SDS011;32448;44.960;-0.698;2023-01-08T06:11:03;27.27;;;15.98;;
46717;SDS011;32448;44.960;-0.698;2023-01-08T06:13:33;21.92;;;10.32;;
46717;SDS011;32448;44.960;-0.698;2023-01-08T06:16:01;32.75;;;21.02;;
46717;SDS011;32448;44.960;-0.698;2023-01-08T06:18:28;19.80;;;11.10;;
46717;SDS011;32448;44.960;-0.698;2023-01-08T06:20:57;16.55;;;7.95;;
46717;SDS011;32448;44.960;-0.698;2023-01-08T06:23:25;11.93;;;2.70;;
46717;SDS011;32448;44.960;-0.698;2023-01-08T06:25:55;9.00;;;3.42;;
46717;SDS011;32448;44.960;-0.698;2023-01-08T06:28:24;10.90;;;2.78;;
46717;SDS011;32448;44.960;-0.698;2023-01-08T06:30:52;8.95;;;2.17;;
46717;SDS011;32448;44.960;-0.698;2023-01-08T06:33:19;9.82;;;2.22;;
46717;SDS011;32448;44.960;-0.698;2023-01-08T06:35:47;11.27;;;1.98;;
46717;SDS011;32448;44.960;-0.698;2023-01-08T06:38:15;8.57;;;2.17;;
46717;SDS011;32448;44.960;-0.698;2023-01-08T06:40:46;7.28;;;1.63;;
46717;SDS011;32448;44.960;-0.698;2023-01-08T06:43:13;9.90;;;1.80;;
46717;SDS011;32448;44.960;-0.698;2023-01-08T06:45:41;8.65;;;1.65;;
46717;SDS011;32448;44.960;-0.698;2023-01-08T06:48:09;8.32;;;2.05;;
46717;SDS011;32448;44.960;-0.698;2023-01-08T06:50:36;11.50;;;1.75;;
46717;SDS011;32448;44.960;-0.698;2023-01-08T06:53:03;5.93;;;1.35;;
46717;SDS011;32448;44.960;-0.698;2023-01-08T06:55:31;6.13;;;1.52;;
46717;SDS011;32448;44.960;-0.698;2023-01-08T06:57:58;9.45;;;1.88;;
46717;SDS011;32448;44.960;-0.698;2023-01-08T07:00:26;5.88;;;1.42;;
46717;SDS011;32448;44.960;-0.698;2023-01-08T07:02:54;9.70;;;1.73;;
46717;SDS011;32448;44.960;-0.698;2023-01-08T07:05:22;7.53;;;1.70;;
46717;SDS011;32448;44.960;-0.698;2023-01-08T07:07:50;12.15;;;2.15;;
46717;SDS011;32448;44.960;-0.698;2023-01-08T07:10:17;6.65;;;1.55;;
46717;SDS011;32448;44.960;-0.698;2023-01-08T07:12:46;9.10;;;2.13;;
46717;SDS011;32448;44.960;-0.698;2023-01-08T07:15:14;4.78;;;1.70;;
46717;SDS011;32448;44.960;-0.698;2023-01-08T07:17:42;7.38;;;1.52;;
46717;SDS011;32448;44.960;-0.698;2023-01-08T07:20:12;7.40;;;1.90;;
46717;SDS011;32448;44.960;-0.698;2023-01-08T07:22:42;9.73;;;2.00;;
46717;SDS011;32448;44.960;-0.698;2023-01-08T07:25:10;12.38;;;1.77;;
46717;SDS011;32448;44.960;-0.698;2023-01-08T07:27:38;7.57;;;1.70;;
46717;SDS011;32448;44.960;-0.698;2023-01-08T07:30:06;11.30;;;2.00;;
46717;SDS011;32448;44.960;-0.698;2023-01-08T07:35:17;6.70;;;1.63;;
46717;SDS011;32448;44.960;-0.698;2023-01-08T07:37:45;8.07;;;1.60;;
46717;SDS011;32448;44.960;-0.698;2023-01-08T07:40:13;8.88;;;1.83;;
46717;SDS011;32448;44.960;-0.698;2023-01-08T07:42:40;10.80;;;1.98;;
46717;SDS011;32448;44.960;-0.698;2023-01-08T07:45:10;6.32;;;1.60;;
46717;SDS011;32448;44.960;-0.698;2023-01-08T07:47:37;7.38;;;1.88;;
46717;SDS011;32448;44.960;-0.698;2023-01-08T07:50:05;6.05;;;1.73;;
46717;SDS011;32448;44.960;-0.698;2023-01-08T07:52:32;7.65;;;1.90;;
46717;SDS011;32448;44.960;-0.698;2023-01-08T07:55:00;11.30;;;1.73;;
46717;SDS011;32448;44.960;-0.698;2023-01-08T07:57:28;6.47;;;1.77;;
46717;SDS011;32448;44.960;-0.698;2023-01-08T07:59:56;10.40;;;2.17;;
46717;SDS011;32448;44.960;-0.698;2023-01-08T08:02:23;7.57;;;1.77;;
46717;SDS011;32448;44.960;-0.698;2023-01-08T08:04:51;7.20;;;1.70;;
46717;SDS011;32448;44.960;-0.698;2023-01-08T08:07:18;7.72;;;1.90;;
46717;SDS011;32448;44.960;-0.698;2023-01-08T08:09:45;7.13;;;1.67;;
46717;SDS011;32448;44.960;-0.698;2023-01-08T08:12:13;6.63;;;1.45;;
46717;SDS011;32448;44.960;-0.698;2023-01-08T08:14:40;8.23;;;1.67;;
46717;SDS011;32448;44.960;-0.698;2023-01-08T08:17:08;9.05;;;1.75;;
46717;SDS011;32448;44.960;-0.698;2023-01-08T08:19:35;8.88;;;1.60;;
46717;SDS011;32448;44.960;-0.698;2023-01-08T08:22:02;10.35;;;1.70;;
46717;SDS011;32448;44.960;-0.698;2023-01-08T08:24:31;11.20;;;2.05;;
46717;SDS011;32448;44.960;-0.698;2023-01-08T08:26:58;8.90;;;1.60;;
46717;SDS011;32448;44.960;-0.698;2023-01-08T08:29:25;8.30;;;1.60;;
46717;SDS011;32448;44.960;-0.698;2023-01-08T08:31:53;5.32;;;1.33;;
46717;SDS011;32448;44.960;-0.698;2023-01-08T08:34:20;7.18;;;1.95;;
46717;SDS011;32448;44.960;-0.698;2023-01-08T08:36:48;7.97;;;2.15;;
46717;SDS011;32448;44.960;-0.698;2023-01-08T08:39:16;9.05;;;1.92;;
46717;SDS011;32448;44.960;-0.698;2023-01-08T08:41:44;11.18;;;1.80;;
46717;SDS011;32448;44.960;-0.698;2023-01-08T08:44:11;6.53;;;1.80;;
46717;SDS011;32448;44.960;-0.698;2023-01-08T08:46:39;11.68;;;2.10;;
46717;SDS011;32448;44.960;-0.698;2023-01-08T08:49:07;6.25;;;1.75;;
46717;SDS011;32448;44.960;-0.698;2023-01-08T08:51:35;12.20;;;1.90;;
46717;SDS011;32448;44.960;-0.698;2023-01-08T08:54:02;7.20;;;1.85;;
46717;SDS011;32448;44.960;-0.698;2023-01-08T08:56:30;6.10;;;1.38;;
46717;SDS011;32448;44.960;-0.698;2023-01-08T08:58:57;6.38;;;1.58;;
46717;SDS011;32448;44.960;-0.698;2023-01-08T09:01:25;8.07;;;1.60;;
46717;SDS011;32448;44.960;-0.698;2023-01-08T09:03:54;7.80;;;1.45;;
46717;SDS011;32448;44.960;-0.698;2023-01-08T09:06:22;6.38;;;2.03;;
46717;SDS011;32448;44.960;-0.698;2023-01-08T09:08:54;6.63;;;1.90;;
46717;SDS011;32448;44.960;-0.698;2023-01-08T09:11:21;7.30;;;2.05;;
46717;SDS011;32448;44.960;-0.698;2023-01-08T09:13:49;13.77;;;2.05;;
46717;SDS011;32448;44.960;-0.698;2023-01-08T09:16:16;4.40;;;2.20;;
46717;SDS011;32448;44.960;-0.698;2023-01-08T09:18:44;9.38;;;2.38;;
46717;SDS011;32448;44.960;-0.698;2023-01-08T09:21:11;6.30;;;2.10;;
46717;SDS011;32448;44.960;-0.698;2023-01-08T09:23:39;9.57;;;1.95;;
46717;SDS011;32448;44.960;-0.698;2023-01-08T09:26:07;6.57;;;2.35;;
46717;SDS011;32448;44.960;-0.698;2023-01-08T09:28:36;7.70;;;1.80;;
46717;SDS011;32448;44.960;-0.698;2023-01-08T09:31:06;4.65;;;2.10;;
46717;SDS011;32448;44.960;-0.698;2023-01-08T09:33:34;8.00;;;2.20;;
46717;SDS011;32448;44.960;-0.698;2023-01-08T09:36:01;7.57;;;2.05;;
46717;SDS011;32448;44.960;-0.698;2023-01-08T09:38:29;9.35;;;2.70;;
46717;SDS011;32448;44.960;-0.698;2023-01-08T09:41:04;6.30;;;3.10;;
46717;SDS011;32448;44.960;-0.698;2023-01-08T09:44:02;7.53;;;2.50;;
46717;SDS011;32448;44.960;-0.698;2023-01-08T09:46:33;8.13;;;2.80;;
46717;SDS011;32448;44.960;-0.698;2023-01-08T09:49:03;6.25;;;2.67;;
46717;SDS011;32448;44.960;-0.698;2023-01-08T09:51:34;6.22;;;2.55;;
46717;SDS011;32448;44.960;-0.698;2023-01-08T09:54:03;4.88;;;2.17;;
46717;SDS011;32448;44.960;-0.698;2023-01-08T09:56:35;6.38;;;2.70;;
46717;SDS011;32448;44.960;-0.698;2023-01-08T09:59:04;9.70;;;2.78;;
46717;SDS011;32448;44.960;-0.698;2023-01-08T10:01:36;5.20;;;2.25;;
46717;SDS011;32448;44.960;-0.698;2023-01-08T10:04:23;8.48;;;3.05;;
46717;SDS011;32448;44.960;-0.698;2023-01-08T10:06:54;9.13;;;4.15;;
46717;SDS011;32448;44.960;-0.698;2023-01-08T10:09:27;5.57;;;2.88;;
46717;SDS011;32448;44.960;-0.698;2023-01-08T10:11:58;5.57;;;2.80;;
46717;SDS011;32448;44.960;-0.698;2023-01-08T10:14:29;9.63;;;3.67;;
46717;SDS011;32448;44.960;-0.698;2023-01-08T10:19:40;7.35;;;3.22;;
46717;SDS011;32448;44.960;-0.698;2023-01-08T10:22:11;7.30;;;2.95;;
46717;SDS011;32448;44.960;-0.698;2023-01-08T10:24:48;5.68;;;2.70;;
46717;SDS011;32448;44.960;-0.698;2023-01-08T10:27:21;8.77;;;2.72;;
46717;SDS011;32448;44.960;-0.698;2023-01-08T10:29:50;8.32;;;3.15;;
46717;SDS011;32448;44.960;-0.698;2023-01-08T10:32:19;5.35;;;2.97;;
46717;SDS011;32448;44.960;-0.698;2023-01-08T10:34:56;9.65;;;3.40;;
46717;SDS011;32448;44.960;-0.698;2023-01-08T10:37:29;4.97;;;3.38;;
46717;SDS011;32448;44.960;-0.698;2023-01-08T10:40:16;8.02;;;3.22;;
46717;SDS011;32448;44.960;-0.698;2023-01-08T10:43:19;10.35;;;3.65;;
46717;SDS011;32448;44.960;-0.698;2023-01-08T10:46:01;7.78;;;3.42;;
46717;SDS011;32448;44.960;-0.698;2023-01-08T10:48:53;17.77;;;6.13;;
46717;SDS011;32448;44.960;-0.698;2023-01-08T10:51:24;13.45;;;6.07;;
46717;SDS011;32448;44.960;-0.698;2023-01-08T10:53:58;6.53;;;3.80;;
46717;SDS011;32448;44.960;-0.698;2023-01-08T10:56:28;16.35;;;6.85;;
46717;SDS011;32448;44.960;-0.698;2023-01-08T10:59:16;32.70;;;15.50;;
46717;SDS011;32448;44.960;-0.698;2023-01-08T11:01:49;16.83;;;7.82;;
46717;SDS011;32448;44.960;-0.698;2023-01-08T11:04:31;9.70;;;4.88;;
46717;SDS011;32448;44.960;-0.698;2023-01-08T11:07:02;8.73;;;3.58;;
46717;SDS011;32448;44.960;-0.698;2023-01-08T11:09:32;7.45;;;3.67;;
46717;SDS011;32448;44.960;-0.698;2023-01-08T11:12:19;5.78;;;3.28;;
46717;SDS011;32448;44.960;-0.698;2023-01-08T11:15:19;7.68;;;3.70;;
46717;SDS011;32448;44.960;-0.698;2023-01-08T11:17:53;11.27;;;4.68;;
46717;SDS011;32448;44.960;-0.698;2023-01-08T11:20:28;6.88;;;3.08;;
46717;SDS011;32448;44.960;-0.698;2023-01-08T11:23:09;7.90;;;4.25;;
46717;SDS011;32448;44.960;-0.698;2023-01-08T11:25:41;7.32;;;4.00;;
46717;SDS011;32448;44.960;-0.698;2023-01-08T11:28:15;6.65;;;4.40;;
46717;SDS011;32448;44.960;-0.698;2023-01-08T11:30:54;8.05;;;3.28;;
46717;SDS011;32448;44.960;-0.698;2023-01-08T11:33:33;7.85;;;4.47;;
46717;SDS011;32448;44.960;-0.698;2023-01-08T11:36:09;7.85;;;4.30;;
46717;SDS011;32448;44.960;-0.698;2023-01-08T11:38:45;6.22;;;3.80;;
46717;SDS011;32448;44.960;-0.698;2023-01-08T11:44:16;8.65;;;4.88;;
46717;SDS011;32448;44.960;-0.698;2023-01-08T11:47:04;10.40;;;4.75;;
46717;SDS011;32448;44.960;-0.698;2023-01-08T11:49:46;9.05;;;4.28;;
46717;SDS011;32448;44.960;-0.698;2023-01-08T11:52:42;11.25;;;4.15;;
46717;SDS011;32448;44.960;-0.698;2023-01-08T12:01:23;10.63;;;4.72;;
46717;SDS011;32448;44.960;-0.698;2023-01-08T12:06:39;8.73;;;4.90;;
46717;SDS011;32448;44.960;-0.698;2023-01-08T12:12:15;9.93;;;4.82;;
46717;SDS011;32448;44.960;-0.698;2023-01-08T12:14:50;7.35;;;4.68;;
46717;SDS011;32448;44.960;-0.698;2023-01-08T12:20:27;10.80;;;4.75;;
46717;SDS011;32448;44.960;-0.698;2023-01-08T12:25:45;7.60;;;4.10;;
46717;SDS011;32448;44.960;-0.698;2023-01-08T12:33:36;9.43;;;5.40;;
46717;SDS011;32448;44.960;-0.698;2023-01-08T12:36:09;7.82;;;3.88;;
46717;SDS011;32448;44.960;-0.698;2023-01-08T12:38:42;8.18;;;4.38;;
46717;SDS011;32448;44.960;-0.698;2023-01-08T12:41:13;9.55;;;4.93;;
46717;SDS011;32448;44.960;-0.698;2023-01-08T12:46:22;11.00;;;4.90;;
46717;SDS011;32448;44.960;-0.698;2023-01-08T12:48:52;11.30;;;6.10;;
46717;SDS011;32448;44.960;-0.698;2023-01-08T13:05:12;9.02;;;5.53;;
46717;SDS011;32448;44.960;-0.698;2023-01-08T13:07:57;14.70;;;8.25;;
46717;SDS011;32448;44.960;-0.698;2023-01-08T13:10:54;34.80;;;16.35;;
46717;SDS011;32448;44.960;-0.698;2023-01-08T13:13:27;12.13;;;5.35;;
46717;SDS011;32448;44.960;-0.698;2023-01-08T13:18:38;7.63;;;4.88;;
46717;SDS011;32448;44.960;-0.698;2023-01-08T13:21:08;12.30;;;7.00;;
46717;SDS011;32448;44.960;-0.698;2023-01-08T13:23:38;16.95;;;8.55;;
46717;SDS011;32448;44.960;-0.698;2023-01-08T13:26:05;10.10;;;4.95;;
46717;SDS011;32448;44.960;-0.698;2023-01-08T13:31:12;19.50;;;7.40;;
46717;SDS011;32448;44.960;-0.698;2023-01-08T13:33:57;16.88;;;7.50;;
46717;SDS011;32448;44.960;-0.698;2023-01-08T13:36:26;16.27;;;7.30;;
46717;SDS011;32448;44.960;-0.698;2023-01-08T13:39:30;28.50;;;11.32;;
46717;SDS011;32448;44.960;-0.698;2023-01-08T13:46:59;25.20;;;9.57;;
46717;SDS011;32448;44.960;-0.698;2023-01-08T13:49:34;18.23;;;6.43;;
46717;SDS011;32448;44.960;-0.698;2023-01-08T13:55:26;15.13;;;5.05;;
46717;SDS011;32448;44.960;-0.698;2023-01-08T13:58:01;27.08;;;9.13;;
46717;SDS011;32448;44.960;-0.698;2023-01-08T14:03:21;17.77;;;8.10;;
46717;SDS011;32448;44.960;-0.698;2023-01-08T14:05:50;28.60;;;8.98;;
46717;SDS011;32448;44.960;-0.698;2023-01-08T14:08:22;30.58;;;12.50;;
46717;SDS011;32448;44.960;-0.698;2023-01-08T14:10:54;26.77;;;12.35;;
46717;SDS011;32448;44.960;-0.698;2023-01-08T14:13:24;19.23;;;9.02;;
46717;SDS011;32448;44.960;-0.698;2023-01-08T14:15:56;21.52;;;7.55;;
46717;SDS011;32448;44.960;-0.698;2023-01-08T14:18:28;30.70;;;7.90;;
46717;SDS011;32448;44.960;-0.698;2023-01-08T14:20:56;17.45;;;5.35;;
46717;SDS011;32448;44.960;-0.698;2023-01-08T14:23:44;19.73;;;6.10;;
46717;SDS011;32448;44.960;-0.698;2023-01-08T14:26:33;14.65;;;6.50;;
46717;SDS011;32448;44.960;-0.698;2023-01-08T14:29:12;17.00;;;7.32;;
46717;SDS011;32448;44.960;-0.698;2023-01-08T14:31:45;19.30;;;7.05;;
46717;SDS011;32448;44.960;-0.698;2023-01-08T14:34:13;18.67;;;6.05;;
46717;SDS011;32448;44.960;-0.698;2023-01-08T14:36:42;18.35;;;6.00;;
46717;SDS011;32448;44.960;-0.698;2023-01-08T14:39:11;19.63;;;6.03;;
46717;SDS011;32448;44.960;-0.698;2023-01-08T14:41:47;19.48;;;5.50;;
46717;SDS011;32448;44.960;-0.698;2023-01-08T14:44:36;24.42;;;7.05;;
46717;SDS011;32448;44.960;-0.698;2023-01-08T14:47:17;18.90;;;5.88;;
46717;SDS011;32448;44.960;-0.698;2023-01-08T14:49:59;20.88;;;5.88;;
46717;SDS011;32448;44.960;-0.698;2023-01-08T14:52:28;26.25;;;6.10;;
46717;SDS011;32448;44.960;-0.698;2023-01-08T14:54:56;18.77;;;6.40;;
46717;SDS011;32448;44.960;-0.698;2023-01-08T14:57:26;16.55;;;5.07;;
46717;SDS011;32448;44.960;-0.698;2023-01-08T14:59:59;18.77;;;5.70;;
46717;SDS011;32448;44.960;-0.698;2023-01-08T15:03:00;21.58;;;5.68;;
46717;SDS011;32448;44.960;-0.698;2023-01-08T15:05:30;15.45;;;4.32;;
46717;SDS011;32448;44.960;-0.698;2023-01-08T15:10:57;7.65;;;1.92;;
46717;SDS011;32448;44.960;-0.698;2023-01-08T15:13:36;7.60;;;2.20;;
46717;SDS011;32448;44.960;-0.698;2023-01-08T15:16:06;7.97;;;2.20;;
46717;SDS011;32448;44.960;-0.698;2023-01-08T15:21:21;7.75;;;2.47;;
46717;SDS011;32448;44.960;-0.698;2023-01-08T15:23:50;10.35;;;4.47;;
46717;SDS011;32448;44.960;-0.698;2023-01-08T15:26:39;7.82;;;3.38;;
46717;SDS011;32448;44.960;-0.698;2023-01-08T15:29:16;27.35;;;14.80;;
46717;SDS011;32448;44.960;-0.698;2023-01-08T15:32:20;6.65;;;2.42;;
46717;SDS011;32448;44.960;-0.698;2023-01-08T15:34:48;13.63;;;7.57;;
46717;SDS011;32448;44.960;-0.698;2023-01-08T15:37:16;5.35;;;3.05;;
46717;SDS011;32448;44.960;-0.698;2023-01-08T15:39:44;6.82;;;3.63;;
46717;SDS011;32448;44.960;-0.698;2023-01-08T15:42:19;7.57;;;2.50;;
46717;SDS011;32448;44.960;-0.698;2023-01-08T15:45:11;6.45;;;1.73;;
46717;SDS011;32448;44.960;-0.698;2023-01-08T15:47:43;9.25;;;2.67;;
46717;SDS011;32448;44.960;-0.698;2023-01-08T15:50:11;7.05;;;2.45;;
46717;SDS011;32448;44.960;-0.698;2023-01-08T15:52:40;11.75;;;1.85;;
46717;SDS011;32448;44.960;-0.698;2023-01-08T15:55:18;12.38;;;2.47;;
46717;SDS011;32448;44.960;-0.698;2023-01-08T15:57:48;6.72;;;2.03;;
46717;SDS011;32448;44.960;-0.698;2023-01-08T16:00:16;10.98;;;2.60;;
46717;SDS011;32448;44.960;-0.698;2023-01-08T16:02:46;14.02;;;3.33;;
46717;SDS011;32448;44.960;-0.698;2023-01-08T16:05:16;10.30;;;2.50;;
46717;SDS011;32448;44.960;-0.698;2023-01-08T16:07:45;9.98;;;1.95;;
46717;SDS011;32448;44.960;-0.698;2023-01-08T16:10:13;10.68;;;1.45;;
46717;SDS011;32448;44.960;-0.698;2023-01-08T16:12:42;8.68;;;2.33;;
46717;SDS011;32448;44.960;-0.698;2023-01-08T16:15:10;12.68;;;2.65;;
46717;SDS011;32448;44.960;-0.698;2023-01-08T16:17:39;10.25;;;2.20;;
46717;SDS011;32448;44.960;-0.698;2023-01-08T16:20:07;11.40;;;2.15;;
46717;SDS011;32448;44.960;-0.698;2023-01-08T16:22:35;9.07;;;1.58;;
46717;SDS011;32448;44.960;-0.698;2023-01-08T16:25:02;15.40;;;2.38;;